Time;durP1;ratioP1;P1;durP2;ratioP2;P2;SDS_P1;SDS_P2;PMS_P1;PMS_P2;Temp;Humidity;BMP_temperature;BMP_pressure;BME280_temperature;BME280_humidity;BME280_pressure;Samples;Min_cycle;Max_cycle;Signal;HPM_P1;HPM_P2
2023/07/10 00:00:17;;;;;;;0.68;0.65;;;;;;;;;;5038228;28;20044;-61
2023/07/10 00:02:43;;;;;;;1.13;0.98;;;;;;;;;;5037052;28;20051;-62
2023/07/10 00:05:13;;;;;;;0.80;0.80;;;;;;;;;;5031615;28;20025;-62
2023/07/10 00:07:39;;;;;;;0.77;0.77;;;;;;;;;;5027186;28;20099;-62
2023/07/10 00:10:05;;;;;;;1.40;1.15;;;;;;;;;;5038173;28;20037;-62
2023/07/10 00:12:31;;;;;;;2.17;1.92;;;;;;;;;;5030856;28;20056;-61
2023/07/10 00:14:57;;;;;;;1.27;1.13;;;;;;;;;;5031934;28;20311;-61
2023/07/10 00:17:23;;;;;;;1.30;1.20;;;;;;;;;;5034930;28;20051;-62
2023/07/10 00:19:49;;;;;;;1.00;1.00;;;;;;;;;;5032547;28;20053;-62
2023/07/10 00:22:16;;;;;;;1.40;1.30;;;;;;;;;;5044117;28;20068;-62
2023/07/10 00:24:42;;;;;;;1.10;1.00;;;;;;;;;;5033383;28;20083;-62
2023/07/10 00:27:12;;;;;;;1.00;1.00;;;;;;;;;;5027169;28;20527;-62
2023/07/10 00:29:39;;;;;;;1.23;0.90;;;;;;;;;;5035572;28;20033;-62
2023/07/10 00:32:11;;;;;;;0.95;0.95;;;;;;;;;;5028541;28;20046;-61
2023/07/10 00:34:37;;;;;;;1.67;0.93;;;;;;;;;;5032726;28;20052;-61
2023/07/10 00:37:03;;;;;;;1.25;1.15;;;;;;;;;;5034406;28;20037;-62
2023/07/10 00:39:30;;;;;;;1.10;0.90;;;;;;;;;;5035789;28;20030;-62
2023/07/10 00:42:01;;;;;;;0.55;0.55;;;;;;;;;;5034722;28;20111;-62
2023/07/10 00:44:38;;;;;;;0.60;0.60;;;;;;;;;;5030760;28;20041;-61
2023/07/10 00:47:07;;;;;;;0.60;0.60;;;;;;;;;;5031532;28;20119;-61
2023/07/10 00:49:33;;;;;;;1.42;1.33;;;;;;;;;;5033861;28;20371;-61
2023/07/10 00:52:06;;;;;;;1.73;1.63;;;;;;;;;;5031767;28;20095;-61
2023/07/10 00:54:36;;;;;;;1.70;1.52;;;;;;;;;;5030859;28;20049;-61
2023/07/10 00:57:10;;;;;;;1.85;1.45;;;;;;;;;;5033168;28;20049;-61
2023/07/10 00:59:40;;;;;;;1.58;1.48;;;;;;;;;;5036084;28;20037;-61
2023/07/10 01:02:09;;;;;;;2.25;2.13;;;;;;;;;;5036096;28;20128;-61
2023/07/10 01:04:36;;;;;;;2.28;2.05;;;;;;;;;;5031436;28;20037;-62
2023/07/10 01:07:02;;;;;;;2.42;2.22;;;;;;;;;;5034718;28;20381;-62
2023/07/10 01:09:29;;;;;;;2.17;2.05;;;;;;;;;;5033396;28;20044;-62
2023/07/10 01:11:55;;;;;;;2.13;2.03;;;;;;;;;;5030914;28;20049;-62
2023/07/10 01:14:22;;;;;;;2.88;2.30;;;;;;;;;;5031981;28;20045;-62
2023/07/10 01:16:48;;;;;;;2.45;2.25;;;;;;;;;;5033048;28;20038;-61
2023/07/10 01:19:19;;;;;;;2.25;2.10;;;;;;;;;;5033027;28;20037;-62
2023/07/10 01:21:45;;;;;;;2.15;2.05;;;;;;;;;;5031346;28;20405;-62
2023/07/10 01:24:11;;;;;;;2.70;2.50;;;;;;;;;;5033980;28;20071;-62
2023/07/10 01:26:38;;;;;;;2.25;2.05;;;;;;;;;;5035621;28;20087;-61
2023/07/10 01:29:04;;;;;;;2.38;2.17;;;;;;;;;;5035158;28;20599;-61
2023/07/10 01:31:31;;;;;;;2.72;1.80;;;;;;;;;;5034157;28;20436;-61
2023/07/10 01:34:02;;;;;;;2.00;1.90;;;;;;;;;;5033643;28;20099;-61
2023/07/10 01:36:30;;;;;;;3.40;2.40;;;;;;;;;;5036363;28;20047;-61
2023/07/10 01:39:02;;;;;;;2.40;2.20;;;;;;;;;;5029891;28;20427;-61
2023/07/10 01:41:28;;;;;;;;;;;;;;;;;;5037741;28;20574;-61
2023/07/10 01:43:54;;;;;;;2.22;2.03;;;;;;;;;;5035394;28;19921;-61
2023/07/10 01:46:21;;;;;;;2.42;2.22;;;;;;;;;;5031470;28;20068;-61
2023/07/10 01:48:48;;;;;;;1.42;1.33;;;;;;;;;;5032101;28;20034;-61
2023/07/10 01:51:14;;;;;;;1.70;1.60;;;;;;;;;;5035931;28;20041;-61
2023/07/10 01:53:42;;;;;;;2.00;1.50;;;;;;;;;;5036097;28;20048;-61
2023/07/10 01:56:08;;;;;;;1.70;1.60;;;;;;;;;;5039526;28;20072;-61
2023/07/10 01:58:34;;;;;;;1.80;1.70;;;;;;;;;;5034071;28;20312;-62
2023/07/10 02:01:00;;;;;;;1.30;1.20;;;;;;;;;;5039321;28;20517;-62
2023/07/10 02:03:26;;;;;;;1.85;1.55;;;;;;;;;;5038932;28;20131;-61
2023/07/10 02:05:52;;;;;;;2.60;2.40;;;;;;;;;;5037113;28;20155;-61
2023/07/10 02:08:18;;;;;;;1.70;1.60;;;;;;;;;;5039325;28;20516;-61
2023/07/10 02:10:44;;;;;;;1.65;1.55;;;;;;;;;;5038088;28;20056;-61
2023/07/10 02:13:11;;;;;;;1.52;1.42;;;;;;;;;;5035980;28;20049;-61
2023/07/10 02:15:38;;;;;;;2.38;1.83;;;;;;;;;;5037343;28;20041;-61
2023/07/10 02:18:04;;;;;;;1.75;1.65;;;;;;;;;;5031122;28;20037;-61
2023/07/10 02:20:30;;;;;;;2.40;2.20;;;;;;;;;;5033848;28;20124;-62
2023/07/10 02:22:56;;;;;;;2.28;2.08;;;;;;;;;;5032166;28;20077;-62
2023/07/10 02:25:22;;;;;;;1.70;1.60;;;;;;;;;;5034472;28;20048;-61
2023/07/10 02:27:48;;;;;;;0.90;0.90;;;;;;;;;;5033514;28;20041;-62
2023/07/10 02:30:14;;;;;;;1.27;1.17;;;;;;;;;;5032126;28;20452;-61
2023/07/10 02:32:40;;;;;;;1.67;1.58;;;;;;;;;;5033370;28;20042;-61
2023/07/10 02:35:06;;;;;;;2.33;2.13;;;;;;;;;;5034351;28;20607;-61
2023/07/10 02:37:32;;;;;;;1.83;1.73;;;;;;;;;;5037545;28;20120;-61
2023/07/10 02:39:58;;;;;;;2.35;2.15;;;;;;;;;;5036942;28;20975;-61
2023/07/10 02:42:24;;;;;;;1.38;1.25;;;;;;;;;;5033796;28;20039;-61
2023/07/10 02:44:50;;;;;;;1.50;1.40;;;;;;;;;;5035709;28;20041;-61
2023/07/10 02:47:16;;;;;;;1.33;1.23;;;;;;;;;;5035806;28;20052;-62
2023/07/10 02:49:42;;;;;;;1.73;1.63;;;;;;;;;;5038619;28;20055;-62
2023/07/10 02:52:08;;;;;;;1.55;1.45;;;;;;;;;;5035203;28;20084;-61
2023/07/10 02:54:34;;;;;;;1.90;1.80;;;;;;;;;;5030522;28;20037;-61
2023/07/10 02:57:00;;;;;;;1.30;1.20;;;;;;;;;;5034069;28;20508;-61
2023/07/10 02:59:27;;;;;;;1.20;1.10;;;;;;;;;;5034152;28;20068;-61
2023/07/10 03:01:53;;;;;;;2.67;1.30;;;;;;;;;;5033973;28;20095;-61
2023/07/10 03:04:19;;;;;;;1.40;1.30;;;;;;;;;;5036900;28;20431;-61
2023/07/10 03:06:47;;;;;;;0.88;0.88;;;;;;;;;;5033908;28;20041;-62
2023/07/10 03:09:14;;;;;;;1.00;1.00;;;;;;;;;;5030951;28;20760;-62
2023/07/10 03:11:40;;;;;;;1.20;1.13;;;;;;;;;;5035527;28;20713;-61
2023/07/10 03:14:06;;;;;;;1.27;1.17;;;;;;;;;;5035818;28;20084;-61
2023/07/10 03:16:32;;;;;;;1.55;1.45;;;;;;;;;;5027843;28;20117;-61
2023/07/10 03:18:58;;;;;;;1.50;1.40;;;;;;;;;;5038453;28;20140;-61
2023/07/10 03:21:24;;;;;;;1.27;1.17;;;;;;;;;;5031778;28;20041;-61
2023/07/10 03:23:51;;;;;;;1.50;1.40;;;;;;;;;;5033775;28;20430;-61
2023/07/10 03:26:17;;;;;;;1.30;1.20;;;;;;;;;;5034098;28;20048;-61
2023/07/10 03:28:43;;;;;;;1.30;1.20;;;;;;;;;;5031437;28;20042;-62
2023/07/10 03:31:10;;;;;;;1.70;1.60;;;;;;;;;;5033486;28;20044;-61
2023/07/10 03:33:36;;;;;;;1.55;1.38;;;;;;;;;;5033511;28;20473;-61
2023/07/10 03:36:03;;;;;;;0.95;0.95;;;;;;;;;;5030968;28;20571;-61
2023/07/10 03:38:29;;;;;;;1.30;1.20;;;;;;;;;;5037610;28;20037;-62
2023/07/10 03:40:56;;;;;;;1.17;1.08;;;;;;;;;;5033303;28;20504;-61
2023/07/10 03:43:23;;;;;;;1.10;1.00;;;;;;;;;;5027301;28;20049;-61
2023/07/10 03:45:49;;;;;;;1.20;1.10;;;;;;;;;;5029880;28;20502;-61
2023/07/10 03:48:15;;;;;;;1.70;1.60;;;;;;;;;;5035755;28;20087;-61
2023/07/10 03:50:41;;;;;;;1.80;1.30;;;;;;;;;;5035162;28;20234;-61
2023/07/10 03:53:07;;;;;;;1.20;1.10;;;;;;;;;;5033681;28;20033;-61
2023/07/10 03:55:33;;;;;;;1.25;1.15;;;;;;;;;;5035546;28;20573;-61
2023/07/10 03:57:59;;;;;;;1.45;1.35;;;;;;;;;;5034014;28;20143;-61
2023/07/10 04:00:25;;;;;;;1.33;1.23;;;;;;;;;;5032332;28;20090;-62
2023/07/10 04:02:51;;;;;;;1.23;1.13;;;;;;;;;;5029817;28;20137;-61
2023/07/10 04:05:17;;;;;;;1.63;0.93;;;;;;;;;;5029151;28;20507;-61
2023/07/10 04:07:43;;;;;;;1.00;1.00;;;;;;;;;;5031106;28;20044;-61
2023/07/10 04:10:10;;;;;;;0.90;0.90;;;;;;;;;;5033715;28;20394;-61
2023/07/10 04:12:36;;;;;;;0.70;0.70;;;;;;;;;;5033655;28;20098;-61
2023/07/10 04:15:02;;;;;;;1.08;0.90;;;;;;;;;;5033044;28;20034;-61
2023/07/10 04:17:28;;;;;;;0.68;0.68;;;;;;;;;;5035248;28;20056;-61
2023/07/10 04:19:54;;;;;;;0.80;0.75;;;;;;;;;;5033981;28;20405;-61
2023/07/10 04:22:20;;;;;;;1.02;0.98;;;;;;;;;;5034029;28;20128;-61
2023/07/10 04:24:46;;;;;;;0.77;0.77;;;;;;;;;;5033553;28;20179;-61
2023/07/10 04:27:12;;;;;;;1.08;1.02;;;;;;;;;;5036133;28;20038;-61
2023/07/10 04:29:38;;;;;;;0.93;0.82;;;;;;;;;;5032174;28;20033;-61
2023/07/10 04:32:04;;;;;;;0.40;0.40;;;;;;;;;;5030627;28;20038;-61
2023/07/10 04:34:30;;;;;;;0.70;0.70;;;;;;;;;;5035508;28;20048;-62
2023/07/10 04:36:56;;;;;;;0.50;0.50;;;;;;;;;;5038661;28;20037;-61
2023/07/10 04:39:22;;;;;;;0.60;0.60;;;;;;;;;;5031633;28;20030;-62
2023/07/10 04:41:48;;;;;;;0.80;0.80;;;;;;;;;;5030347;28;20505;-62
2023/07/10 04:44:14;;;;;;;0.60;0.60;;;;;;;;;;5033215;28;20144;-62
2023/07/10 04:46:41;;;;;;;0.77;0.70;;;;;;;;;;5029984;28;20065;-62
2023/07/10 04:49:07;;;;;;;1.05;1.05;;;;;;;;;;5030953;28;20040;-62
2023/07/10 04:51:33;;;;;;;0.70;0.70;;;;;;;;;;5033852;28;20083;-61
2023/07/10 04:53:59;;;;;;;0.85;0.85;;;;;;;;;;5033767;28;20282;-61
2023/07/10 04:56:25;;;;;;;0.60;0.50;;;;;;;;;;5034024;28;20048;-61
2023/07/10 04:58:53;;;;;;;0.40;0.40;;;;;;;;;;5035348;28;20084;-61
2023/07/10 05:01:23;;;;;;;0.63;0.63;;;;;;;;;;5035104;28;20044;-61
2023/07/10 05:03:49;;;;;;;0.70;0.60;;;;;;;;;;5036599;28;20110;-61
2023/07/10 05:06:16;;;;;;;0.68;0.68;;;;;;;;;;5036063;28;20042;-61
2023/07/10 05:08:42;;;;;;;0.80;0.80;;;;;;;;;;5038181;28;20033;-61
2023/07/10 05:11:08;;;;;;;1.00;0.90;;;;;;;;;;5036845;28;20083;-61
2023/07/10 05:13:34;;;;;;;0.60;0.60;;;;;;;;;;5038605;28;20053;-62
2023/07/10 05:16:00;;;;;;;0.60;0.60;;;;;;;;;;5036894;28;20109;-61
2023/07/10 05:18:27;;;;;;;0.70;0.70;;;;;;;;;;5036382;28;20337;-62
2023/07/10 05:20:54;;;;;;;0.63;0.63;;;;;;;;;;5035087;28;20058;-61
2023/07/10 05:23:20;;;;;;;0.88;0.88;;;;;;;;;;5036179;28;20406;-61
2023/07/10 05:25:55;;;;;;;0.50;0.50;;;;;;;;;;5040160;28;20037;-61
2023/07/10 05:28:21;;;;;;;0.52;0.50;;;;;;;;;;5037963;28;20083;-61
2023/07/10 05:30:47;;;;;;;0.43;0.43;;;;;;;;;;5037806;28;20555;-61
2023/07/10 05:33:13;;;;;;;0.50;0.50;;;;;;;;;;5034927;28;20128;-61
2023/07/10 05:35:47;;;;;;;0.50;0.50;;;;;;;;;;5038637;28;20037;-61
2023/07/10 05:38:13;;;;;;;1.50;1.40;;;;;;;;;;5036885;28;20088;-61
2023/07/10 05:40:42;;;;;;;0.80;0.80;;;;;;;;;;5041266;28;20029;-61
2023/07/10 05:43:09;;;;;;;0.90;0.90;;;;;;;;;;5035958;28;20071;-61
2023/07/10 05:45:35;;;;;;;0.60;0.60;;;;;;;;;;5036470;28;20049;-61
2023/07/10 05:48:01;;;;;;;0.82;0.50;;;;;;;;;;5035436;28;20040;-61
2023/07/10 05:50:27;;;;;;;0.93;0.55;;;;;;;;;;5032720;28;20938;-61
2023/07/10 05:52:53;;;;;;;0.52;0.52;;;;;;;;;;5036268;28;20049;-62
2023/07/10 05:55:19;;;;;;;1.25;0.80;;;;;;;;;;5039117;28;20094;-61
2023/07/10 05:57:45;;;;;;;0.55;0.50;;;;;;;;;;5032499;28;20064;-61
2023/07/10 06:00:11;;;;;;;0.30;0.30;;;;;;;;;;5038961;28;20638;-61
2023/07/10 06:02:37;;;;;;;0.30;0.30;;;;;;;;;;5035061;28;20048;-61
2023/07/10 06:05:03;;;;;;;0.50;0.50;;;;;;;;;;5033198;28;20041;-61
2023/07/10 06:07:29;;;;;;;1.15;0.70;;;;;;;;;;5036652;28;20064;-61
2023/07/10 06:09:55;;;;;;;0.88;0.75;;;;;;;;;;5035156;28;20047;-61
2023/07/10 06:12:21;;;;;;;0.88;0.70;;;;;;;;;;5034612;28;20052;-61
2023/07/10 06:14:47;;;;;;;0.60;0.60;;;;;;;;;;5032631;28;20076;-62
2023/07/10 06:17:13;;;;;;;0.75;0.75;;;;;;;;;;5034934;28;20664;-61
2023/07/10 06:19:39;;;;;;;0.60;0.60;;;;;;;;;;5033773;28;20042;-61
2023/07/10 06:22:07;;;;;;;0.80;0.80;;;;;;;;;;5034073;28;20036;-61
2023/07/10 06:24:33;;;;;;;0.82;0.65;;;;;;;;;;5034753;28;20132;-61
2023/07/10 06:26:59;;;;;;;0.47;0.47;;;;;;;;;;5035391;28;20131;-61
2023/07/10 06:29:25;;;;;;;0.57;0.52;;;;;;;;;;5036048;28;20589;-61
2023/07/10 06:31:51;;;;;;;0.50;0.50;;;;;;;;;;5035948;28;20045;-61
2023/07/10 06:34:17;;;;;;;1.08;0.43;;;;;;;;;;5034015;28;20124;-61
2023/07/10 06:36:43;;;;;;;1.63;0.60;;;;;;;;;;5035216;28;20556;-61
2023/07/10 06:39:09;;;;;;;0.50;0.40;;;;;;;;;;5034834;28;20065;-61
2023/07/10 06:41:35;;;;;;;0.40;0.40;;;;;;;;;;5032960;28;20054;-61
2023/07/10 06:44:01;;;;;;;0.60;0.52;;;;;;;;;;5034633;28;20400;-61
2023/07/10 06:46:27;;;;;;;1.15;0.70;;;;;;;;;;5036001;28;20568;-61
2023/07/10 06:48:53;;;;;;;3.15;1.30;;;;;;;;;;5034001;28;20128;-61
2023/07/10 06:51:19;;;;;;;2.40;1.58;;;;;;;;;;5039378;28;20037;-62
2023/07/10 06:53:45;;;;;;;1.15;1.05;;;;;;;;;;5033119;28;20167;-61
2023/07/10 06:56:11;;;;;;;1.25;0.82;;;;;;;;;;5036543;28;20467;-61
2023/07/10 06:58:37;;;;;;;1.02;0.90;;;;;;;;;;5036029;28;20366;-62
2023/07/10 07:01:04;;;;;;;2.47;1.42;;;;;;;;;;5032106;28;20044;-61
2023/07/10 07:03:30;;;;;;;5.43;1.92;;;;;;;;;;5037483;28;20045;-62
2023/07/10 07:05:56;;;;;;;1.38;1.13;;;;;;;;;;5033472;28;20037;-61
2023/07/10 07:08:23;;;;;;;2.40;1.42;;;;;;;;;;5035253;28;20497;-61
2023/07/10 07:10:50;;;;;;;4.50;1.77;;;;;;;;;;5036864;28;20653;-62
2023/07/10 07:13:16;;;;;;;2.20;1.42;;;;;;;;;;5035958;28;20087;-61
2023/07/10 07:15:42;;;;;;;1.75;1.20;;;;;;;;;;5029161;28;20055;-62
2023/07/10 07:18:08;;;;;;;3.13;1.55;;;;;;;;;;5031537;28;20040;-61
2023/07/10 07:20:34;;;;;;;2.72;1.23;;;;;;;;;;5034980;28;20489;-61
2023/07/10 07:23:00;;;;;;;2.03;1.17;;;;;;;;;;5033872;28;20504;-61
2023/07/10 07:25:28;;;;;;;0.80;0.80;;;;;;;;;;5033718;28;20430;-61
2023/07/10 07:27:54;;;;;;;1.23;1.00;;;;;;;;;;5035337;28;20112;-61
2023/07/10 07:30:20;;;;;;;0.73;0.70;;;;;;;;;;5036628;28;20150;-61
2023/07/10 07:32:47;;;;;;;3.95;1.20;;;;;;;;;;5030659;28;20048;-61
2023/07/10 07:35:13;;;;;;;1.70;1.10;;;;;;;;;;5033044;28;20523;-62
2023/07/10 07:37:39;;;;;;;1.52;1.00;;;;;;;;;;5031484;28;20760;-61
2023/07/10 07:40:06;;;;;;;1.48;0.70;;;;;;;;;;5037015;28;20131;-59
2023/07/10 07:42:32;;;;;;;1.80;1.30;;;;;;;;;;5038685;28;20518;-59
2023/07/10 07:44:59;;;;;;;3.15;1.60;;;;;;;;;;5033586;28;20592;-59
2023/07/10 07:47:27;;;;;;;4.55;2.00;;;;;;;;;;5034351;28;20033;-63
2023/07/10 07:49:53;;;;;;;2.42;1.50;;;;;;;;;;5033021;28;20053;-64
2023/07/10 07:52:19;;;;;;;2.08;1.33;;;;;;;;;;5027222;28;20053;-63
2023/07/10 07:54:45;;;;;;;1.95;1.25;;;;;;;;;;5028532;28;20076;-63
2023/07/10 07:57:11;;;;;;;1.73;1.45;;;;;;;;;;5031152;28;20041;-63
2023/07/10 07:59:37;;;;;;;0.90;0.77;;;;;;;;;;5033543;28;20044;-63
2023/07/10 08:02:04;;;;;;;2.45;1.25;;;;;;;;;;5033045;28;20046;-63
2023/07/10 08:04:30;;;;;;;2.10;1.13;;;;;;;;;;5027544;28;20041;-63
2023/07/10 08:06:57;;;;;;;2.95;1.40;;;;;;;;;;5030411;28;20410;-64
2023/07/10 08:09:23;;;;;;;1.33;1.02;;;;;;;;;;5031186;28;20559;-64
2023/07/10 08:11:49;;;;;;;1.67;1.15;;;;;;;;;;5034515;28;20107;-64
2023/07/10 08:14:15;;;;;;;1.38;0.98;;;;;;;;;;5034281;28;20059;-64
2023/07/10 08:16:41;;;;;;;4.72;1.65;;;;;;;;;;5033625;28;20037;-63
2023/07/10 08:19:07;;;;;;;6.10;2.35;;;;;;;;;;5036203;28;20549;-63
2023/07/10 08:21:33;;;;;;;2.38;1.27;;;;;;;;;;5042181;28;20080;-63
2023/07/10 08:23:59;;;;;;;2.15;1.25;;;;;;;;;;5042124;28;20122;-63
2023/07/10 08:26:25;;;;;;;7.55;1.73;;;;;;;;;;5037507;28;20061;-63
2023/07/10 08:28:51;;;;;;;5.88;1.95;;;;;;;;;;5040820;28;20725;-63
2023/07/10 08:31:18;;;;;;;2.28;0.90;;;;;;;;;;5041576;28;20036;-63
2023/07/10 08:33:44;;;;;;;2.35;1.10;;;;;;;;;;5038118;28;20049;-63
2023/07/10 08:36:10;;;;;;;2.47;1.25;;;;;;;;;;5031280;28;20037;-62
2023/07/10 08:38:37;;;;;;;2.70;1.30;;;;;;;;;;5038809;28;20102;-63
2023/07/10 08:41:14;;;;;;;2.67;1.08;;;;;;;;;;5043005;28;20041;-62
2023/07/10 08:43:41;;;;;;;1.75;1.15;;;;;;;;;;5042906;28;20509;-63
2023/07/10 08:46:13;;;;;;;1.20;1.00;;;;;;;;;;5037490;28;20040;-63
2023/07/10 08:48:55;;;;;;;2.53;1.38;;;;;;;;;;5046290;28;20036;-63
2023/07/10 08:51:21;;;;;;;2.08;0.90;;;;;;;;;;5046013;28;20044;-63
2023/07/10 08:53:54;;;;;;;2.35;0.80;;;;;;;;;;5045693;28;20489;-63
2023/07/10 08:56:34;;;;;;;4.32;1.60;;;;;;;;;;5047260;28;20095;-62
2023/07/10 08:59:04;;;;;;;4.25;1.35;;;;;;;;;;5046334;28;20053;-63
2023/07/10 09:01:35;;;;;;;1.77;1.00;;;;;;;;;;5045549;28;20052;-63
2023/07/10 09:04:02;;;;;;;;;;;;;;;;;;5046946;28;20094;-63
2023/07/10 09:06:31;;;;;;;2.67;1.55;;;;;;;;;;5046434;28;19920;-63
2023/07/10 09:08:57;;;;;;;4.43;1.55;;;;;;;;;;5045822;28;20041;-63
2023/07/10 09:11:24;;;;;;;0.85;0.80;;;;;;;;;;5046019;28;20072;-63
2023/07/10 09:13:56;;;;;;;0.93;0.77;;;;;;;;;;5045944;28;20113;-63
2023/07/10 09:16:23;;;;;;;1.45;0.77;;;;;;;;;;5046907;28;20041;-63
2023/07/10 09:18:52;;;;;;;3.53;1.25;;;;;;;;;;5047843;28;20056;-63
2023/07/10 09:21:25;;;;;;;3.17;1.15;;;;;;;;;;5047396;28;20151;-63
2023/07/10 09:23:51;;;;;;;3.47;1.40;;;;;;;;;;5048179;28;20557;-63
2023/07/10 09:26:21;;;;;;;1.70;1.08;;;;;;;;;;5046282;28;20044;-63
2023/07/10 09:29:14;;;;;;;2.50;1.00;;;;;;;;;;5047199;28;20068;-63
2023/07/10 09:31:40;;;;;;;2.22;1.23;;;;;;;;;;5045691;28;20465;-63
2023/07/10 09:34:09;;;;;;;2.00;0.82;;;;;;;;;;5047926;28;20068;-63
2023/07/10 09:36:35;;;;;;;3.50;1.20;;;;;;;;;;5047223;28;20032;-63
2023/07/10 09:39:02;;;;;;;4.47;1.60;;;;;;;;;;5047477;28;20393;-63
2023/07/10 09:41:28;;;;;;;4.38;1.50;;;;;;;;;;5046517;28;20119;-63
2023/07/10 09:43:56;;;;;;;4.30;1.55;;;;;;;;;;5046649;28;20682;-63
2023/07/10 09:46:23;;;;;;;2.97;1.55;;;;;;;;;;5047643;28;20064;-63
2023/07/10 09:48:51;;;;;;;3.17;1.20;;;;;;;;;;5047734;28;20461;-63
2023/07/10 09:51:17;;;;;;;3.30;1.42;;;;;;;;;;5046748;28;20037;-62
2023/07/10 09:53:48;;;;;;;3.42;1.92;;;;;;;;;;5047260;28;20266;-62
2023/07/10 09:56:24;;;;;;;2.42;1.48;;;;;;;;;;5046289;28;20098;-62
2023/07/10 09:58:53;;;;;;;1.83;1.10;;;;;;;;;;5047755;28;20364;-62
2023/07/10 10:01:19;;;;;;;4.45;1.80;;;;;;;;;;5047261;28;20068;-62
2023/07/10 10:03:45;;;;;;;2.35;1.00;;;;;;;;;;5046182;28;20683;-63
2023/07/10 10:06:24;;;;;;;3.22;1.33;;;;;;;;;;5046757;28;20053;-63
2023/07/10 10:08:51;;;;;;;1.20;0.90;;;;;;;;;;5047399;28;20044;-62
2023/07/10 10:11:17;;;;;;;4.63;1.52;;;;;;;;;;5045694;28;20057;-62
2023/07/10 10:13:47;;;;;;;3.28;1.38;;;;;;;;;;5046685;28;20806;-62
2023/07/10 10:16:23;;;;;;;2.03;1.25;;;;;;;;;;5046684;28;20253;-62
2023/07/10 10:18:51;;;;;;;2.47;1.20;;;;;;;;;;5046590;28;20045;-62
2023/07/10 10:21:18;;;;;;;2.70;1.55;;;;;;;;;;5046398;28;20120;-62
2023/07/10 10:23:46;;;;;;;3.90;1.63;;;;;;;;;;5046683;28;20049;-63
2023/07/10 10:26:30;;;;;;;3.00;1.67;;;;;;;;;;5045645;28;20103;-63
2023/07/10 10:29:15;;;;;;;4.25;1.98;;;;;;;;;;5046820;28;20083;-63
2023/07/10 10:31:59;;;;;;;3.63;1.80;;;;;;;;;;5046053;28;20425;-63
2023/07/10 10:34:35;;;;;;;1.95;1.25;;;;;;;;;;5046684;28;20072;-63
2023/07/10 10:37:13;;;;;;;6.60;1.65;;;;;;;;;;5046541;28;20041;-63
2023/07/10 10:39:43;;;;;;;2.95;1.10;;;;;;;;;;5045986;28;20075;-63
2023/07/10 10:42:25;;;;;;;4.07;1.60;;;;;;;;;;5046356;28;20381;-63
2023/07/10 10:44:51;;;;;;;4.10;1.35;;;;;;;;;;5040450;28;20442;-63
2023/07/10 10:47:39;;;;;;;3.67;1.13;;;;;;;;;;5034519;28;20314;-63
2023/07/10 10:50:17;;;;;;;1.83;1.13;;;;;;;;;;5041114;28;20037;-63
2023/07/10 10:52:52;;;;;;;1.70;1.10;;;;;;;;;;5039629;28;20429;-63
2023/07/10 10:55:37;;;;;;;2.42;1.17;;;;;;;;;;5030428;28;20045;-63
2023/07/10 10:58:15;;;;;;;1.42;1.13;;;;;;;;;;5031999;28;20038;-63
2023/07/10 11:00:59;;;;;;;3.08;0.95;;;;;;;;;;5037199;28;20489;-63
2023/07/10 11:03:31;;;;;;;2.90;1.33;;;;;;;;;;5041363;28;20045;-63
2023/07/10 11:05:57;;;;;;;;;;;;;;;;;;5034648;28;20038;-63
2023/07/10 11:08:34;;;;;;;6.57;1.90;;;;;;;;;;5030021;28;19921;-63
2023/07/10 11:11:03;;;;;;;4.03;1.63;;;;;;;;;;5041473;28;20054;-64
2023/07/10 11:13:34;;;;;;;3.28;1.30;;;;;;;;;;5036931;28;20029;-63
2023/07/10 11:16:02;;;;;;;4.97;1.35;;;;;;;;;;5030798;28;20045;-64
2023/07/10 11:18:29;;;;;;;4.53;1.55;;;;;;;;;;5032579;28;20069;-64
2023/07/10 11:20:55;;;;;;;4.90;1.80;;;;;;;;;;5041315;28;20352;-64
2023/07/10 11:23:31;;;;;;;5.55;1.75;;;;;;;;;;5036568;28;20124;-64
2023/07/10 11:25:59;;;;;;;3.70;1.60;;;;;;;;;;5035965;28;20119;-64
2023/07/10 11:28:30;;;;;;;3.67;1.63;;;;;;;;;;5035685;28;20075;-64
2023/07/10 11:31:14;;;;;;;3.25;1.05;;;;;;;;;;5034201;28;20403;-64
2023/07/10 11:33:42;;;;;;;3.10;1.10;;;;;;;;;;5039633;28;20068;-64
2023/07/10 11:36:11;;;;;;;5.53;1.52;;;;;;;;;;5031115;28;20033;-64
2023/07/10 11:38:53;;;;;;;3.60;1.30;;;;;;;;;;5035037;28;20489;-63
2023/07/10 11:41:30;;;;;;;3.95;1.10;;;;;;;;;;5030990;28;20056;-64
2023/07/10 11:44:12;;;;;;;3.33;1.50;;;;;;;;;;5038405;28;20045;-64
2023/07/10 11:46:54;;;;;;;2.42;1.05;;;;;;;;;;5037712;28;20126;-64
2023/07/10 11:49:20;;;;;;;;;;;;;;;;;;5035486;28;20123;-64
2023/07/10 11:52:06;;;;;;;2.50;0.90;;;;;;;;;;5041871;28;19960;-64
2023/07/10 11:54:32;;;;;;;2.10;1.23;;;;;;;;;;5034411;28;20178;-63
2023/07/10 11:57:11;;;;;;;1.95;0.70;;;;;;;;;;5035856;28;20509;-63
2023/07/10 11:59:48;;;;;;;1.50;0.88;;;;;;;;;;5038171;28;20119;-64
2023/07/10 12:02:17;;;;;;;0.63;0.50;;;;;;;;;;5041888;28;20125;-64
2023/07/10 12:04:43;;;;;;;1.35;0.88;;;;;;;;;;5043522;28;20074;-64
2023/07/10 12:07:12;;;;;;;0.90;0.50;;;;;;;;;;5043920;28;20041;-64
2023/07/10 12:09:39;;;;;;;0.85;0.70;;;;;;;;;;5034665;28;20404;-63
2023/07/10 12:12:10;;;;;;;0.90;0.68;;;;;;;;;;5030408;28;20049;-61
2023/07/10 12:14:36;;;;;;;1.50;0.70;;;;;;;;;;5038198;28;20072;-63
2023/07/10 12:17:04;;;;;;;0.80;0.40;;;;;;;;;;5031180;28;20084;-64
2023/07/10 12:19:36;;;;;;;0.85;0.40;;;;;;;;;;5031067;28;20405;-63
2023/07/10 12:22:03;;;;;;;0.93;0.43;;;;;;;;;;5023581;28;20084;-63
2023/07/10 12:24:29;;;;;;;1.02;0.60;;;;;;;;;;5024088;28;20063;-63
2023/07/10 12:26:57;;;;;;;1.10;0.47;;;;;;;;;;5024911;28;20497;-63
2023/07/10 12:29:23;;;;;;;1.60;0.60;;;;;;;;;;5025103;28;20099;-63
2023/07/10 12:31:49;;;;;;;1.40;0.73;;;;;;;;;;5023829;28;20449;-63
2023/07/10 12:34:26;;;;;;;1.95;0.90;;;;;;;;;;5023133;28;20508;-63
2023/07/10 12:36:53;;;;;;;1.45;0.77;;;;;;;;;;5023799;28;20044;-63
2023/07/10 12:39:20;;;;;;;0.95;0.50;;;;;;;;;;5021993;28;20041;-63
2023/07/10 12:41:46;;;;;;;3.17;1.08;;;;;;;;;;5022732;28;20048;-63
2023/07/10 12:44:17;;;;;;;1.23;0.70;;;;;;;;;;5022812;28;20045;-63
2023/07/10 12:46:43;;;;;;;0.98;0.70;;;;;;;;;;5021571;28;20536;-64
2023/07/10 12:49:14;;;;;;;2.35;0.70;;;;;;;;;;5023917;28;20049;-63
2023/07/10 12:51:42;;;;;;;1.90;0.82;;;;;;;;;;5025031;28;20041;-63
2023/07/10 12:54:20;;;;;;;2.15;0.65;;;;;;;;;;5036368;28;20064;-63
2023/07/10 12:56:47;;;;;;;2.15;0.80;;;;;;;;;;5024587;28;20121;-63
2023/07/10 12:59:13;;;;;;;1.95;1.08;;;;;;;;;;5040276;28;20524;-63
2023/07/10 13:01:46;;;;;;;0.93;0.63;;;;;;;;;;5025944;28;20505;-63
2023/07/10 13:04:19;;;;;;;1.42;0.50;;;;;;;;;;5034700;28;20094;-63
2023/07/10 13:06:45;;;;;;;1.38;1.02;;;;;;;;;;5040730;28;20845;-63
2023/07/10 13:09:20;;;;;;;3.47;1.20;;;;;;;;;;5024703;28;20053;-63
2023/07/10 13:11:46;;;;;;;2.45;0.80;;;;;;;;;;5024228;28;20449;-63
2023/07/10 13:14:27;;;;;;;1.02;0.45;;;;;;;;;;5036070;28;20366;-64
2023/07/10 13:16:53;;;;;;;0.80;0.60;;;;;;;;;;5025511;28;20125;-64
2023/07/10 13:19:19;;;;;;;1.15;0.68;;;;;;;;;;5043618;28;20076;-64
2023/07/10 13:21:45;;;;;;;2.53;0.90;;;;;;;;;;5039465;28;20427;-63
2023/07/10 13:24:11;;;;;;;1.10;0.77;;;;;;;;;;5040901;28;20561;-63
2023/07/10 13:26:37;;;;;;;1.40;0.60;;;;;;;;;;5040263;28;20109;-63
2023/07/10 13:29:10;;;;;;;1.42;0.70;;;;;;;;;;5039182;28;20044;-63
2023/07/10 13:31:36;;;;;;;2.13;0.73;;;;;;;;;;5037929;28;20025;-63
2023/07/10 13:34:02;;;;;;;1.65;0.80;;;;;;;;;;5038110;28;20051;-63
2023/07/10 13:36:28;;;;;;;1.92;0.60;;;;;;;;;;5032026;28;20041;-63
2023/07/10 13:38:54;;;;;;;1.33;0.55;;;;;;;;;;5036878;28;20466;-63
2023/07/10 13:41:22;;;;;;;0.35;0.28;;;;;;;;;;5027037;28;20294;-63
2023/07/10 13:43:48;;;;;;;1.48;0.50;;;;;;;;;;5032664;28;20136;-63
2023/07/10 13:46:28;;;;;;;1.17;0.40;;;;;;;;;;5031798;28;20568;-63
2023/07/10 13:48:56;;;;;;;1.25;0.60;;;;;;;;;;5033965;28;20041;-64
2023/07/10 13:51:22;;;;;;;1.00;0.40;;;;;;;;;;5040705;28;20033;-64
2023/07/10 13:53:49;;;;;;;2.15;0.50;;;;;;;;;;5036467;28;20521;-63
2023/07/10 13:56:21;;;;;;;2.30;0.80;;;;;;;;;;5045826;28;20045;-63
2023/07/10 13:58:48;;;;;;;1.73;0.50;;;;;;;;;;5042228;28;20056;-63
2023/07/10 14:01:14;;;;;;;3.35;0.82;;;;;;;;;;5035155;28;20048;-63
2023/07/10 14:03:41;;;;;;;0.93;0.65;;;;;;;;;;5029715;28;20045;-63
2023/07/10 14:06:27;;;;;;;1.05;0.60;;;;;;;;;;5029228;28;20288;-63
2023/07/10 14:08:57;;;;;;;2.38;0.35;;;;;;;;;;5029992;28;20060;-63
2023/07/10 14:11:24;;;;;;;0.82;0.30;;;;;;;;;;5025405;28;20143;-64
2023/07/10 14:13:50;;;;;;;0.73;0.22;;;;;;;;;;5031254;28;20092;-63
2023/07/10 14:16:18;;;;;;;1.55;0.45;;;;;;;;;;5027828;28;21017;-63
2023/07/10 14:18:44;;;;;;;0.57;0.40;;;;;;;;;;5034965;28;20048;-63
2023/07/10 14:21:14;;;;;;;2.33;0.70;;;;;;;;;;5031101;28;20045;-63
2023/07/10 14:23:40;;;;;;;1.85;0.75;;;;;;;;;;5030119;28;20560;-64
2023/07/10 14:26:27;;;;;;;1.02;0.63;;;;;;;;;;5032140;28;20052;-63
2023/07/10 14:28:53;;;;;;;2.50;0.90;;;;;;;;;;5049079;28;20087;-63
2023/07/10 14:31:20;;;;;;;0.50;0.38;;;;;;;;;;5029367;28;20041;-63
2023/07/10 14:33:47;;;;;;;1.02;0.52;;;;;;;;;;5031138;28;20068;-63
2023/07/10 14:36:14;;;;;;;1.50;0.70;;;;;;;;;;5028032;28;20536;-63
2023/07/10 14:38:40;;;;;;;1.88;0.75;;;;;;;;;;5029964;28;20042;-63
2023/07/10 14:41:10;;;;;;;1.67;0.70;;;;;;;;;;5028812;28;20052;-64
2023/07/10 14:43:36;;;;;;;1.63;0.60;;;;;;;;;;5037692;28;20473;-64
2023/07/10 14:46:02;;;;;;;1.30;0.63;;;;;;;;;;5034054;28;20490;-64
2023/07/10 14:48:28;;;;;;;0.60;0.50;;;;;;;;;;5026433;28;20045;-64